createdAt,value
2023-04-14T00:02:10.450Z,5.28
2023-04-14T00:04:39.045Z,5.85
2023-04-14T00:07:07.652Z,6.03
2023-04-14T00:09:36.464Z,5.57
2023-04-14T00:12:06.980Z,5.47
2023-04-14T00:14:37.900Z,6.20
2023-04-14T00:17:06.977Z,5.72
2023-04-14T00:19:35.807Z,5.97
2023-04-14T00:22:04.402Z,6.10
2023-04-14T00:24:33.196Z,5.88
2023-04-14T00:27:02.290Z,5.50
2023-04-14T00:29:30.706Z,5.95
2023-04-14T00:32:01.015Z,6.15
2023-04-14T00:34:32.771Z,5.60
2023-04-14T00:37:02.124Z,5.28
2023-04-14T00:39:31.687Z,5.35
2023-04-14T00:42:02.633Z,5.55
2023-04-14T00:44:31.501Z,5.57
2023-04-14T00:47:03.172Z,5.97
2023-04-14T00:49:32.065Z,5.53
2023-04-14T00:52:01.125Z,5.80
2023-04-14T00:54:31.488Z,5.50
2023-04-14T00:57:00.818Z,4.70
2023-04-14T00:59:30.088Z,5.28
2023-04-14T01:02:01.516Z,5.30
2023-04-14T01:04:44.540Z,5.60
2023-04-14T01:07:21.761Z,5.57
2023-04-14T01:09:51.330Z,5.72
2023-04-14T01:12:31.782Z,5.32
2023-04-14T01:15:08.887Z,5.50
2023-04-14T01:17:46.107Z,5.68
2023-04-14T01:20:24.372Z,5.80
2023-04-14T01:22:59.892Z,5.10
2023-04-14T01:25:58.134Z,4.88
2023-04-14T01:28:44.293Z,5.28
2023-04-14T01:31:21.555Z,5.35
2023-04-14T01:33:56.595Z,5.97
2023-04-14T01:36:34.798Z,5.82
2023-04-14T01:39:07.264Z,5.00
2023-04-14T01:41:38.608Z,6.07
2023-04-14T01:44:09.284Z,5.43
2023-04-14T01:46:42.638Z,5.15
2023-04-14T01:49:12.943Z,5.30
2023-04-14T01:51:45.873Z,5.78
2023-04-14T01:54:17.194Z,5.25
2023-04-14T01:56:47.811Z,4.90
2023-04-14T01:59:19.506Z,5.55
2023-04-14T02:01:53.610Z,5.15
2023-04-14T02:04:26.865Z,5.00
2023-04-14T02:06:57.812Z,4.78
2023-04-14T02:09:30.645Z,5.45
2023-04-14T02:12:00.972Z,5.30
2023-04-14T02:14:32.161Z,4.93
2023-04-14T02:17:03.754Z,4.60
2023-04-14T02:19:32.506Z,5.13
2023-04-14T02:22:05.142Z,4.78
2023-04-14T02:24:33.820Z,4.97
2023-04-14T02:27:08.970Z,4.97
2023-04-14T02:29:41.908Z,5.32
2023-04-14T02:32:18.531Z,5.05
2023-04-14T02:34:53.455Z,4.75
2023-04-14T02:37:26.395Z,5.13
2023-04-14T02:40:04.743Z,5.18
2023-04-14T02:42:38.603Z,5.10
2023-04-14T02:45:13.477Z,5.35
2023-04-14T02:47:46.170Z,4.93
2023-04-14T02:50:18.025Z,5.30
2023-04-14T02:52:57.884Z,4.63
2023-04-14T02:55:33.160Z,5.00
2023-04-14T02:58:01.912Z,4.93
2023-04-14T03:00:34.319Z,4.40
2023-04-14T03:03:06.920Z,4.75
2023-04-14T03:05:37.811Z,4.47
2023-04-14T03:08:13.452Z,4.10
2023-04-14T03:10:48.988Z,4.63
2023-04-14T03:13:22.187Z,4.32
2023-04-14T03:15:53.261Z,4.63
2023-04-14T03:18:24.470Z,4.63
2023-04-14T03:20:56.011Z,4.35
2023-04-14T03:23:27.553Z,4.43
2023-04-14T03:26:03.506Z,4.85
2023-04-14T03:28:36.271Z,4.43
2023-04-14T03:31:09.919Z,4.75
2023-04-14T03:33:57.464Z,4.80
2023-04-14T03:36:35.645Z,4.40
2023-04-14T03:39:07.204Z,4.43
2023-04-14T03:41:40.625Z,4.47
2023-04-14T03:44:15.921Z,4.65
2023-04-14T03:46:49.481Z,5.10
2023-04-14T03:49:21.527Z,4.95
2023-04-14T03:51:54.633Z,4.90
2023-04-14T03:54:25.644Z,4.85
2023-04-14T03:56:56.985Z,4.93
2023-04-14T03:59:29.281Z,4.72
2023-04-14T04:01:59.297Z,5.25
2023-04-14T04:04:31.408Z,5.18
2023-04-14T04:07:01.056Z,4.97
2023-04-14T04:09:31.209Z,5.15
2023-04-14T04:12:04.681Z,5.38
2023-04-14T04:14:38.477Z,4.63
2023-04-14T04:17:09.836Z,5.38
2023-04-14T04:19:40.621Z,5.22
2023-04-14T04:22:10.696Z,4.93
2023-04-14T04:24:41.641Z,5.57
2023-04-14T04:27:27.144Z,4.88
2023-04-14T04:30:01.845Z,5.20
2023-04-14T04:32:34.191Z,5.88
2023-04-14T04:35:06.347Z,5.82
2023-04-14T04:37:36.451Z,5.28
2023-04-14T04:40:05.528Z,5.05
2023-04-14T04:42:34.309Z,5.25
2023-04-14T04:45:03.876Z,5.25
2023-04-14T04:47:32.950Z,5.50
2023-04-14T04:50:01.540Z,4.88
2023-04-14T04:52:32.204Z,5.65
2023-04-14T04:55:00.877Z,5.25
2023-04-14T04:57:29.469Z,5.47
2023-04-14T04:59:58.556Z,4.80
2023-04-14T05:02:28.993Z,4.93
2023-04-14T05:04:57.861Z,5.78
2023-04-14T05:07:26.379Z,5.30
2023-04-14T05:09:57.222Z,5.00
2023-04-14T05:12:25.899Z,5.03
2023-04-14T05:14:55.732Z,5.18
2023-04-14T05:17:24.711Z,5.63
2023-04-14T05:19:53.180Z,5.32
2023-04-14T05:22:24.264Z,5.38
2023-04-14T05:24:53.718Z,4.93
2023-04-14T05:27:23.775Z,5.45
2023-04-14T05:29:53.797Z,5.38
2023-04-14T05:32:22.766Z,5.32
2023-04-14T05:34:51.467Z,5.65
2023-04-14T05:37:19.865Z,5.65
2023-04-14T05:39:48.590Z,5.57
2023-04-14T05:42:17.049Z,5.82
2023-04-14T05:44:47.580Z,5.47
2023-04-14T05:47:16.430Z,6.22
2023-04-14T05:49:45.157Z,5.80
2023-04-14T05:52:14.266Z,6.38
2023-04-14T05:54:43.979Z,6.10
2023-04-14T05:57:12.550Z,6.10
2023-04-14T05:59:41.165Z,6.70
2023-04-14T06:02:12.313Z,7.57
2023-04-14T06:04:42.340Z,6.63
2023-04-14T06:07:11.176Z,8.68
2023-04-14T06:09:41.865Z,8.25
2023-04-14T06:12:11.758Z,8.30
2023-04-14T06:14:42.698Z,8.10
2023-04-14T06:17:12.743Z,7.65
2023-04-14T06:19:41.702Z,8.30
2023-04-14T06:22:10.642Z,9.00
2023-04-14T06:24:39.081Z,8.95
2023-04-14T06:27:07.978Z,8.55
2023-04-14T06:29:36.639Z,9.90
2023-04-14T06:32:05.382Z,9.50
2023-04-14T06:34:35.725Z,8.70
2023-04-14T06:37:04.158Z,8.00
2023-04-14T06:39:33.232Z,7.60
2023-04-14T06:42:01.998Z,7.35
2023-04-14T06:44:31.342Z,7.05
2023-04-14T06:47:00.430Z,6.65
2023-04-14T06:49:29.638Z,6.80
2023-04-14T06:52:00.149Z,6.85
2023-04-14T06:54:31.887Z,6.88
2023-04-14T06:57:01.571Z,6.65
2023-04-14T06:59:30.607Z,6.32
2023-04-14T07:01:59.726Z,5.65
2023-04-14T07:04:28.371Z,6.10
2023-04-14T07:07:02.261Z,6.05
2023-04-14T07:09:31.006Z,5.47
2023-04-14T07:11:59.887Z,6.45
2023-04-14T07:14:28.793Z,5.88
2023-04-14T07:16:58.020Z,5.75
2023-04-14T07:19:26.619Z,6.05
2023-04-14T07:21:55.383Z,5.80
2023-04-14T07:24:25.199Z,6.03
2023-04-14T07:26:54.031Z,5.97
2023-04-14T07:29:22.903Z,5.78
2023-04-14T07:31:52.451Z,5.90
2023-04-14T07:34:21.018Z,5.38
2023-04-14T07:36:51.316Z,5.10
2023-04-14T07:39:23.829Z,5.53
2023-04-14T07:41:57.936Z,5.45
2023-04-14T07:44:26.948Z,5.70
2023-04-14T07:46:55.820Z,5.65
2023-04-14T07:49:26.118Z,5.45
2023-04-14T07:51:57.082Z,5.22
2023-04-14T07:54:26.216Z,5.55
2023-04-14T07:56:56.249Z,5.30
2023-04-14T07:59:24.916Z,5.30
2023-04-14T08:01:53.631Z,5.05
2023-04-14T08:04:22.481Z,5.63
2023-04-14T08:06:51.447Z,5.65
2023-04-14T08:09:20.545Z,5.40
2023-04-14T08:11:49.444Z,5.55
2023-04-14T08:14:19.480Z,5.65
2023-04-14T08:16:48.860Z,5.00
2023-04-14T08:19:18.041Z,5.75
2023-04-14T08:21:47.580Z,6.43
2023-04-14T08:24:16.614Z,5.47
2023-04-14T08:26:45.331Z,4.72
2023-04-14T08:29:14.454Z,4.88
2023-04-14T08:31:44.352Z,5.05
2023-04-14T08:34:14.167Z,5.50
2023-04-14T08:36:51.296Z,5.03
2023-04-14T08:39:21.369Z,5.55
2023-04-14T08:41:54.134Z,5.22
2023-04-14T08:44:23.472Z,5.03
2023-04-14T08:46:56.609Z,5.10
2023-04-14T08:49:33.641Z,5.40
2023-04-14T08:52:04.646Z,5.38
2023-04-14T08:54:34.143Z,4.80
2023-04-14T08:57:04.816Z,4.55
2023-04-14T08:59:34.063Z,4.78
2023-04-14T09:02:06.860Z,5.63
2023-04-14T09:04:37.876Z,5.65
2023-04-14T09:07:07.280Z,5.37
2023-04-14T09:09:36.515Z,5.10
2023-04-14T09:12:05.428Z,5.25
2023-04-14T09:14:35.147Z,5.60
2023-04-14T09:17:06.816Z,6.28
2023-04-14T09:19:36.699Z,5.75
2023-04-14T09:22:26.158Z,6.13
2023-04-14T09:24:55.113Z,5.95
2023-04-14T09:27:24.397Z,6.38
2023-04-14T09:29:55.502Z,5.80
2023-04-14T09:32:25.420Z,6.23
2023-04-14T09:34:56.719Z,6.13
2023-04-14T09:37:27.811Z,6.15
2023-04-14T09:39:57.631Z,6.40
2023-04-14T09:42:39.847Z,5.53
2023-04-14T09:45:10.011Z,5.80
2023-04-14T09:47:40.443Z,5.15
2023-04-14T09:50:10.620Z,5.47
2023-04-14T09:52:41.253Z,5.50
2023-04-14T09:55:13.061Z,5.35
2023-04-14T09:57:43.625Z,5.00
2023-04-14T10:00:21.851Z,5.35
2023-04-14T10:02:52.825Z,5.45
2023-04-14T10:05:22.622Z,5.75
2023-04-14T10:07:51.752Z,5.05
2023-04-14T10:10:20.687Z,5.50
2023-04-14T10:12:49.680Z,5.80
2023-04-14T10:15:18.701Z,5.35
2023-04-14T10:17:47.651Z,4.97
2023-04-14T10:20:19.273Z,5.90
2023-04-14T10:22:49.883Z,5.00
2023-04-14T10:25:20.369Z,5.38
2023-04-14T10:27:50.392Z,5.18
2023-04-14T10:30:19.265Z,4.65
2023-04-14T10:32:49.082Z,4.22
2023-04-14T10:35:21.746Z,4.82
2023-04-14T10:37:54.206Z,4.43
2023-04-14T10:40:23.745Z,4.50
2023-04-14T10:42:54.737Z,5.13
2023-04-14T10:45:24.118Z,4.78
2023-04-14T10:47:53.327Z,4.30
2023-04-14T10:50:26.410Z,4.55
2023-04-14T10:52:57.111Z,4.88
2023-04-14T10:55:28.107Z,4.95
2023-04-14T10:58:06.582Z,4.10
2023-04-14T11:00:39.781Z,4.75
2023-04-14T11:03:12.656Z,4.32
2023-04-14T11:05:46.357Z,4.20
2023-04-14T11:08:18.561Z,4.25
2023-04-14T11:10:51.530Z,4.25
2023-04-14T11:13:20.686Z,4.47
2023-04-14T11:15:57.942Z,4.97
2023-04-14T11:18:34.892Z,4.40
2023-04-14T11:21:07.097Z,3.90
2023-04-14T11:23:37.220Z,4.22
2023-04-14T11:26:07.174Z,4.53
2023-04-14T11:28:38.458Z,4.65
2023-04-14T11:31:09.055Z,4.07
2023-04-14T11:33:42.203Z,3.90
2023-04-14T11:36:13.706Z,4.20
2023-04-14T11:38:46.004Z,3.90
2023-04-14T11:41:17.359Z,3.75
2023-04-14T11:43:48.976Z,4.15
2023-04-14T11:46:21.449Z,3.65
2023-04-14T11:48:55.272Z,4.25
2023-04-14T11:51:32.775Z,3.83
2023-04-14T11:54:01.760Z,3.55
2023-04-14T11:56:32.546Z,3.58
2023-04-14T11:59:03.423Z,3.75
2023-04-14T12:01:33.722Z,3.50
2023-04-14T12:04:03.163Z,3.40
2023-04-14T12:06:37.410Z,3.70
2023-04-14T12:09:10.560Z,4.20
2023-04-14T12:11:39.693Z,3.45
2023-04-14T12:14:08.848Z,3.20
2023-04-14T12:16:38.677Z,3.58
2023-04-14T12:19:07.607Z,3.40
2023-04-14T12:21:38.517Z,3.50
2023-04-14T12:24:07.675Z,3.13
2023-04-14T12:26:38.317Z,3.50
2023-04-14T12:29:07.145Z,3.22
2023-04-14T12:31:36.540Z,2.97
2023-04-14T12:34:06.765Z,2.97
2023-04-14T12:39:09.926Z,2.63
2023-04-14T12:41:40.876Z,3.08
2023-04-14T12:44:20.787Z,2.47
2023-04-14T12:46:50.193Z,3.03
2023-04-14T12:49:32.898Z,2.70
2023-04-14T12:52:02.303Z,2.33
2023-04-14T12:54:52.158Z,2.33
2023-04-14T12:57:22.467Z,2.35
2023-04-14T12:59:52.236Z,2.55
2023-04-14T13:02:22.076Z,2.05
2023-04-14T13:04:51.303Z,2.15
2023-04-14T13:07:20.610Z,2.15
2023-04-14T13:09:51.990Z,2.30
2023-04-14T13:14:49.240Z,2.38
2023-04-14T13:17:18.397Z,2.10
2023-04-14T13:19:47.311Z,2.88
2023-04-14T13:22:16.996Z,2.03
2023-04-14T13:24:45.750Z,2.05
2023-04-14T13:27:15.832Z,1.85
2023-04-14T13:29:44.589Z,1.73
2023-04-14T13:32:14.334Z,1.95
2023-04-14T13:34:44.440Z,1.73
2023-04-14T13:37:13.529Z,1.80
2023-04-14T13:39:42.286Z,2.00
2023-04-14T13:42:11.016Z,1.55
2023-04-14T13:44:41.689Z,2.08
2023-04-14T13:47:10.973Z,1.75
2023-04-14T13:49:39.910Z,2.08
2023-04-14T13:52:09.859Z,1.70
2023-04-14T13:54:38.623Z,2.10
2023-04-14T13:57:08.332Z,1.80
2023-04-14T13:59:36.887Z,1.92
2023-04-14T14:02:08.486Z,2.10
2023-04-14T14:04:37.851Z,1.88
2023-04-14T14:07:06.985Z,1.75
2023-04-14T14:09:36.057Z,2.08
2023-04-14T14:12:09.418Z,1.90
2023-04-14T14:14:38.493Z,2.10
2023-04-14T14:17:10.221Z,2.00
2023-04-14T14:19:38.732Z,1.85
2023-04-14T14:22:07.638Z,2.17
2023-04-14T14:24:36.311Z,1.80
2023-04-14T14:27:05.755Z,1.85
2023-04-14T14:29:35.298Z,1.50
2023-04-14T14:32:04.600Z,2.20
2023-04-14T14:34:34.910Z,1.80
2023-04-14T14:37:04.049Z,1.60
2023-04-14T14:39:33.013Z,1.83
2023-04-14T14:42:02.077Z,2.08
2023-04-14T14:44:30.886Z,2.40
2023-04-14T14:46:59.684Z,2.28
2023-04-14T14:49:28.364Z,2.28
2023-04-14T14:51:58.781Z,3.95
2023-04-14T14:54:27.349Z,3.25
2023-04-14T14:56:56.625Z,2.70
2023-04-14T14:59:25.326Z,2.72
2023-04-14T15:01:54.902Z,2.53
2023-04-14T15:04:23.784Z,2.25
2023-04-14T15:06:52.581Z,2.60
2023-04-14T15:09:22.766Z,3.05
2023-04-14T15:11:51.604Z,3.50
2023-04-14T15:14:20.650Z,2.50
2023-04-14T15:16:49.827Z,1.90
2023-04-14T15:19:18.348Z,2.35
2023-04-14T15:21:47.786Z,1.98
2023-04-14T15:24:16.728Z,1.98
2023-04-14T15:26:46.841Z,2.40
2023-04-14T15:29:17.336Z,2.20
2023-04-14T15:31:46.255Z,2.40
2023-04-14T15:34:15.149Z,2.22
2023-04-14T15:36:44.204Z,2.10
2023-04-14T15:39:13.773Z,2.50
2023-04-14T15:41:42.718Z,2.30
2023-04-14T15:44:12.640Z,2.00
2023-04-14T15:46:41.654Z,2.50
2023-04-14T15:49:10.962Z,2.40
2023-04-14T15:51:39.542Z,2.05
2023-04-14T15:54:08.352Z,2.20
2023-04-14T15:56:37.748Z,2.80
2023-04-14T15:59:07.118Z,2.35
2023-04-14T16:01:37.164Z,3.35
2023-04-14T16:04:06.642Z,2.72
2023-04-14T16:06:36.637Z,2.33
2023-04-14T16:09:07.079Z,2.58
2023-04-14T16:11:35.902Z,2.78
2023-04-14T16:14:05.320Z,2.65
2023-04-14T16:16:33.926Z,2.60
2023-04-14T16:19:04.030Z,2.67
2023-04-14T16:21:32.790Z,2.85
2023-04-14T16:24:01.535Z,2.28
2023-04-14T16:26:30.628Z,2.70
2023-04-14T16:28:59.177Z,2.45
2023-04-14T16:31:28.510Z,2.40
2023-04-14T16:33:57.053Z,3.53
2023-04-14T16:36:29.435Z,2.50
2023-04-14T16:38:58.137Z,2.97
2023-04-14T16:41:27.483Z,3.00
2023-04-14T16:43:55.914Z,2.42
2023-04-14T16:46:26.072Z,2.53
2023-04-14T16:48:55.538Z,3.05
2023-04-14T16:51:25.866Z,2.47
2023-04-14T16:53:57.248Z,2.47
2023-04-14T16:56:25.972Z,2.90
2023-04-14T16:58:56.004Z,2.83
2023-04-14T17:01:26.694Z,3.10
2023-04-14T17:03:56.062Z,2.65
2023-04-14T17:06:25.368Z,3.30
2023-04-14T17:08:55.489Z,2.75
2023-04-14T17:11:24.092Z,3.00
2023-04-14T17:13:53.337Z,3.15
2023-04-14T17:16:22.981Z,2.90
2023-04-14T17:18:52.195Z,3.30
2023-04-14T17:21:20.866Z,3.17
2023-04-14T17:23:49.742Z,3.10
2023-04-14T17:26:19.736Z,2.88
2023-04-14T17:28:48.490Z,2.90
2023-04-14T17:31:17.843Z,3.35
2023-04-14T17:33:47.198Z,3.33
2023-04-14T17:36:17.705Z,3.78
2023-04-14T17:38:46.779Z,3.40
2023-04-14T17:41:15.428Z,4.45
2023-04-14T17:43:46.982Z,4.53
2023-04-14T17:46:17.746Z,5.80
2023-04-14T17:48:46.520Z,4.38
2023-04-14T17:51:15.551Z,3.70
2023-04-14T17:53:44.292Z,3.17
2023-04-14T17:56:14.998Z,3.75
2023-04-14T17:58:44.695Z,4.03
2023-04-14T18:01:15.016Z,4.30
2023-04-14T18:03:43.957Z,4.47
2023-04-14T18:06:13.602Z,3.88
2023-04-14T18:08:42.736Z,3.38
2023-04-14T18:11:12.815Z,3.33
2023-04-14T18:13:41.478Z,3.38
2023-04-14T18:16:10.715Z,3.50
2023-04-14T18:18:40.638Z,3.03
2023-04-14T18:21:09.690Z,2.90
2023-04-14T18:23:38.558Z,2.95
2023-04-14T18:28:39.279Z,3.33
2023-04-14T18:31:10.778Z,2.85
2023-04-14T18:33:42.448Z,3.10
2023-04-14T18:36:10.890Z,3.10
2023-04-14T18:38:39.414Z,2.88
2023-04-14T18:41:08.408Z,3.42
2023-04-14T18:43:37.240Z,3.10
2023-04-14T18:46:05.818Z,3.10
2023-04-14T18:48:34.923Z,2.70
2023-04-14T18:51:08.325Z,3.33
2023-04-14T18:53:38.623Z,2.53
2023-04-14T18:56:09.251Z,2.85
2023-04-14T18:58:38.289Z,3.22
2023-04-14T19:01:09.896Z,2.80
2023-04-14T19:03:38.800Z,2.92
2023-04-14T19:06:08.814Z,2.88
2023-04-14T19:08:41.434Z,3.15
2023-04-14T19:11:11.891Z,3.35
2023-04-14T19:13:44.330Z,2.80
2023-04-14T19:16:14.786Z,3.13
2023-04-14T19:21:19.201Z,3.15
2023-04-14T19:23:48.791Z,2.58
2023-04-14T19:26:18.568Z,3.10
2023-04-14T19:28:47.600Z,3.00
2023-04-14T19:31:17.613Z,3.08
2023-04-14T19:33:47.144Z,2.78
2023-04-14T19:36:18.689Z,3.10
2023-04-14T19:38:47.496Z,3.15
2023-04-14T19:41:16.473Z,3.03
2023-04-14T19:43:45.870Z,3.22
2023-04-14T19:46:15.509Z,3.10
2023-04-14T19:48:46.494Z,3.15
2023-04-14T19:51:16.453Z,3.60
2023-04-14T19:53:46.657Z,3.00
2023-04-14T19:56:15.651Z,3.80
2023-04-14T19:58:44.558Z,2.78
2023-04-14T20:01:14.230Z,3.00
2023-04-14T20:04:07.454Z,2.75
2023-04-14T20:06:34.479Z,3.20
2023-04-14T20:09:04.392Z,3.20
2023-04-14T20:11:33.247Z,3.58
2023-04-14T20:14:02.091Z,3.22
2023-04-14T20:16:30.806Z,3.47
2023-04-14T20:18:59.630Z,3.03
2023-04-14T20:21:30.565Z,2.95
2023-04-14T20:24:01.314Z,2.90
2023-04-14T20:26:29.994Z,3.25
2023-04-14T20:28:58.622Z,3.33
2023-04-14T20:31:27.551Z,3.03
2023-04-14T20:33:57.492Z,2.97
2023-04-14T20:36:25.924Z,3.10
2023-04-14T20:38:54.383Z,3.05
2023-04-14T20:41:24.476Z,3.22
2023-04-14T20:43:53.345Z,2.90
2023-04-14T20:46:22.668Z,2.97
2023-04-14T20:48:51.169Z,3.28
2023-04-14T20:51:20.094Z,2.67
2023-04-14T20:53:48.980Z,3.15
2023-04-14T20:56:17.870Z,3.30
2023-04-14T20:58:47.839Z,3.30
2023-04-14T21:01:16.809Z,3.30
2023-04-14T21:03:45.350Z,2.60
2023-04-14T21:06:14.854Z,3.35
2023-04-14T21:08:44.173Z,2.95
2023-04-14T21:11:18.097Z,3.60
2023-04-14T21:15:24.974Z,3.33
2023-04-14T21:16:38.119Z,3.28
2023-04-14T21:19:07.031Z,2.80
2023-04-14T21:21:37.834Z,3.05
2023-04-14T21:24:07.174Z,3.20
2023-04-14T21:26:35.627Z,3.50
2023-04-14T21:29:05.647Z,3.22
2023-04-14T21:31:34.235Z,3.15
2023-04-14T21:34:04.792Z,3.20
2023-04-14T21:36:33.368Z,2.92
2023-04-14T21:39:02.337Z,3.20
2023-04-14T21:41:33.101Z,3.00
2023-04-14T21:44:01.987Z,3.47
2023-04-14T21:46:35.214Z,2.75
2023-04-14T21:49:04.085Z,3.05
2023-04-14T21:51:33.750Z,3.25
2023-04-14T21:54:02.315Z,2.63
2023-04-14T21:56:31.199Z,3.35
2023-04-14T21:58:59.844Z,3.00
2023-04-14T22:01:31.724Z,3.22
2023-04-14T22:04:02.469Z,3.00
2023-04-14T22:06:35.462Z,2.92
2023-04-14T22:09:06.255Z,3.40
2023-04-14T22:11:34.940Z,3.10
2023-04-14T22:14:05.509Z,3.08
2023-04-14T22:16:37.523Z,3.35
2023-04-14T22:21:35.091Z,2.83
2023-04-14T22:24:04.680Z,3.20
2023-04-14T22:26:33.210Z,3.70
2023-04-14T22:29:02.015Z,3.65
2023-04-14T22:31:31.345Z,3.67
2023-04-14T22:34:01.972Z,3.13
2023-04-14T22:36:30.619Z,3.47
2023-04-14T22:38:59.627Z,3.45
2023-04-14T22:41:28.004Z,3.33
2023-04-14T22:43:56.564Z,3.38
2023-04-14T22:46:25.596Z,3.15
2023-04-14T22:48:57.113Z,3.05
2023-04-14T22:51:28.798Z,2.70
2023-04-14T22:53:57.813Z,4.07
2023-04-14T22:56:28.016Z,3.55
2023-04-14T22:58:58.995Z,3.33
2023-04-14T23:01:29.244Z,3.50
2023-04-14T23:03:57.662Z,3.25
2023-04-14T23:06:27.579Z,3.38
2023-04-14T23:08:56.363Z,3.47
2023-04-14T23:11:25.296Z,3.28
2023-04-14T23:13:53.783Z,3.83
2023-04-14T23:16:22.388Z,3.90
2023-04-14T23:18:52.534Z,3.97
2023-04-14T23:21:22.429Z,3.88
2023-04-14T23:23:53.686Z,3.45
2023-04-14T23:26:22.983Z,3.63
2023-04-14T23:28:53.127Z,3.72
2023-04-14T23:31:22.129Z,3.95
2023-04-14T23:33:52.961Z,3.28
2023-04-14T23:36:21.639Z,4.03
2023-04-14T23:38:50.424Z,4.28
2023-04-14T23:41:20.204Z,3.78
2023-04-14T23:43:49.692Z,4.15
2023-04-14T23:46:18.435Z,3.90
2023-04-14T23:48:47.515Z,4.28
2023-04-14T23:51:20.780Z,4.03
2023-04-14T23:53:50.963Z,4.13
2023-04-14T23:56:21.237Z,4.22
2023-04-14T23:58:49.814Z,4.30
